EPZG/IEG METAR and TAF weather

Enter ICAO airport designator
Station Type Date Time Source
EPZG METAR 2021/09/23 20:00 UTC NOAA

EPZG 232000Z 25017G30KT 9999 OVC045 18/11 Q1005


Station Type Date Time Source
EPZG Decoded METAR 2021/09/23 20:00 UTC NOAA

Zielona Gora, Poland (EPZG) 51-56N 015-32E 192M
Sep 23, 2021 - 04:00 PM EDT / 2021.09.23 2000 UTC
Wind: from the WSW (250 degrees) at 20 MPH (17 KT) gusting to 35 MPH (30 KT):0
Visibility: greater than 7 mile(s):0
Sky conditions: overcast
Temperature: 64 F (18 C)
Dew Point: 51 F (11 C)
Relative Humidity: 63%
Pressure (altimeter): 29.68 in. Hg (1005 hPa)
ob: EPZG 232000Z 25017G30KT 9999 OVC045 18/11 Q1005
cycle: 20

Station Type Date Time Source
EPZG TAF 2012/06/28 21:49 UTC NOAA

TAF EPZG 282000Z 2821/2906 VRB02KT CAVOK
TEMPO 2823/2904 5000 BR PROB30 2900/2904 1500 BR BKN005

Example: see airport list